Main page
METAR-TAF:

METAR-TAF

Airports :

Pápa, Hungary

latitude: 47-12N, longitude: 017-30E, elevation: 145 m

Current weather observation

The report was made 27 minutes ago, at 20:45 UTC
Wind 2 kt from the East
Temperature 5°C
Humidity 93%
Pressure 1019 hPa
Visibility: 4000 m
Broken clouds at a height of 900 ft
Overcast at a height of 2000 ft
mist

METAR: LHPA 212045Z 09002KT 4000 BR BKN009 OVC020 05/04 Q1019 BECMG 3000 BR RMK GRN

Time: 22:12 (21:12 UTC)

Forecast

The report was made 3 hours and 57 minutes ago, at 17:15 UTC
Forecast valid from 21 at 18 UTC to 22 at 18 UTC
Wind 3 kt from variable directions
Visibility: 5000 m
Broken clouds at a height of 1000 ft
Overcast at a height of 2000 ft
mist
Temporary
from 21 at 18 UTC to 22 at 18 UTC
Visibility: 1500 m
Broken clouds at a height of 500 ft
Overcast at a height of 1500 ft
light rain, light drizzle, mist

TAF: LHPA 211715Z 2118/2218 VRB03KT 5000 BR BKN010 OVC020 TEMPO 2118/2218 1500 -RA -DZ BR BKN005 OVC015

Weather observations and forecasts of more than 4000 airports (METAR and TAF reports).

The available stations are represented by yellow and red dots on the map.

Hover mouse over dot to see the name of the station.

Then click to see weather observations and forecasts.

To change the map : click on the green buttons with a black cross to zoom in, on the green button with a dash to zoom out, or on the green arrows for adjacent maps.


METAR-TAF: